Time;durP1;ratioP1;P1;durP2;ratioP2;P2;SDS_P1;SDS_P2;PMS_P1;PMS_P2;Temp;Humidity;BMP_temperature;BMP_pressure;BME280_temperature;BME280_humidity;BME280_pressure;Samples;Min_cycle;Max_cycle;Signal;HPM_P1;HPM_P2
2021/11/04 00:02:03;;;;;;;2.60;1.93;;;;;;;-145.69;100.00;71273.06;5073685;28;20198;-79
2021/11/04 00:04:30;;;;;;;3.47;1.43;;;;;;;-145.69;100.00;71267.09;5073395;28;20215;-80
2021/11/04 00:06:56;;;;;;;3.40;1.70;;;;;;;-145.69;100.00;71263.09;5073239;28;20237;-80
2021/11/04 00:09:24;;;;;;;2.33;1.50;;;;;;;-145.69;100.00;71267.09;5073514;28;20210;-80
2021/11/04 00:11:51;;;;;;;2.23;1.60;;;;;;;-145.69;100.00;71257.13;5073284;28;20206;-80
2021/11/04 00:14:22;;;;;;;3.40;1.67;;;;;;;-145.69;100.00;71249.19;5073231;28;20211;-79
2021/11/04 00:16:53;;;;;;;3.33;1.80;;;;;;;-145.69;100.00;71253.16;5073297;28;20194;-80
2021/11/04 00:19:23;;;;;;;2.57;1.50;;;;;;;-145.69;100.00;71249.19;5073043;28;20256;-79
2021/11/04 00:21:58;;;;;;;2.30;1.67;;;;;;;-145.69;100.00;71253.16;5073162;28;20203;-80
2021/11/04 00:24:31;;;;;;;2.17;1.40;;;;;;;-145.69;100.00;71259.13;5073274;28;20206;-80
2021/11/04 00:26:58;;;;;;;2.50;1.63;;;;;;;-145.69;100.00;71267.09;5072894;28;20230;-80
2021/11/04 00:29:24;;;;;;;2.87;1.57;;;;;;;-145.69;100.00;71273.06;5073197;28;20612;-80
2021/11/04 00:31:51;;;;;;;1.53;1.43;;;;;;;-145.69;100.00;71267.09;5073026;28;20209;-80
2021/11/04 00:34:18;;;;;;;3.20;1.57;;;;;;;-145.69;100.00;71263.09;5073233;28;20203;-79
2021/11/04 00:36:51;;;;;;;1.93;1.23;;;;;;;-145.69;100.00;71271.06;5073059;28;20205;-80
2021/11/04 00:39:21;;;;;;;1.70;1.40;;;;;;;-145.69;100.00;71267.09;5073065;28;20673;-80
2021/11/04 00:41:48;;;;;;;1.37;1.20;;;;;;;-145.69;100.00;71267.09;5073039;28;20226;-79
2021/11/04 00:44:15;;;;;;;4.53;1.40;;;;;;;-145.69;100.00;71265.09;5072833;28;20199;-79
2021/11/04 00:46:44;;;;;;;2.47;1.30;;;;;;;-145.69;100.00;71263.09;5072658;28;20266;-79
2021/11/04 00:49:11;;;;;;;1.87;1.30;;;;;;;-145.69;100.00;71255.16;5073189;28;20195;-79
2021/11/04 00:51:39;;;;;;;1.80;1.00;;;;;;;-145.69;100.00;71255.16;5072684;28;20752;-79
2021/11/04 00:54:07;;;;;;;1.47;1.20;;;;;;;-145.69;100.00;71253.16;5072826;28;20233;-79
2021/11/04 00:56:40;;;;;;;3.60;1.23;;;;;;;-145.69;100.00;71247.19;5072785;28;20203;-80
2021/11/04 00:59:08;;;;;;;1.10;1.00;;;;;;;-145.69;100.00;71247.19;5072787;28;20211;-80
2021/11/04 01:01:36;;;;;;;1.30;1.00;;;;;;;-145.69;100.00;71231.28;5072951;28;20224;-80
2021/11/04 01:04:13;;;;;;;1.50;1.03;;;;;;;-145.69;100.00;71235.25;5075925;28;20206;-80
2021/11/04 01:06:41;;;;;;;1.03;0.90;;;;;;;-145.69;100.00;71235.25;5076477;28;20261;-80
2021/11/04 01:09:08;;;;;;;1.83;1.10;;;;;;;-145.69;100.00;71233.25;5076580;28;20203;-80
2021/11/04 01:11:34;;;;;;;1.87;1.00;;;;;;;-145.69;100.00;71233.25;5076557;28;20198;-80
2021/11/04 01:14:10;;;;;;;3.77;1.07;;;;;;;-145.69;100.00;71231.28;5076603;28;20199;-79
2021/11/04 01:16:38;;;;;;;0.80;0.80;;;;;;;-145.69;100.00;71223.31;5076118;28;20206;-79
2021/11/04 01:19:08;;;;;;;1.30;1.20;;;;;;;-145.69;100.00;71217.34;5076549;28;20203;-79
2021/11/04 01:21:37;;;;;;;2.07;0.90;;;;;;;-145.69;100.00;71223.31;5076356;28;20550;-79
2021/11/04 01:24:06;;;;;;;1.33;1.10;;;;;;;-145.69;100.00;71211.38;5076128;28;20252;-80
2021/11/04 01:26:34;;;;;;;4.47;1.07;;;;;;;-145.69;100.00;71213.38;5076207;28;20226;-79
2021/11/04 01:29:00;;;;;;;1.00;1.00;;;;;;;-145.69;100.00;71263.09;5076395;28;20195;-80
2021/11/04 01:31:31;;;;;;;0.70;0.70;;;;;;;-145.69;100.00;71294.94;5076327;28;20210;-79
2021/11/04 01:34:00;;;;;;;2.47;1.20;;;;;;;-145.69;100.00;71308.88;5076120;28;20199;-79
2021/11/04 01:36:26;;;;;;;1.20;1.10;;;;;;;-145.69;100.00;71332.75;5075922;28;20203;-80
2021/11/04 01:38:53;;;;;;;1.70;1.10;;;;;;;-145.69;100.00;71342.69;5075999;28;20654;-79
2021/11/04 01:41:24;;;;;;;1.77;1.30;;;;;;;-145.69;100.00;71352.66;5076177;28;20198;-80
2021/11/04 01:43:51;;;;;;;2.50;1.40;;;;;;;-145.69;100.00;71376.53;5076135;28;20306;-80
2021/11/04 01:46:20;;;;;;;1.70;1.50;;;;;;;-145.69;100.00;71364.59;5075841;28;20715;-79
2021/11/04 01:48:51;;;;;;;2.50;1.90;;;;;;;-145.69;100.00;71376.53;5075841;28;20289;-80
2021/11/04 01:51:20;;;;;;;2.27;1.70;;;;;;;-145.69;100.00;71374.53;5075779;28;20217;-80
2021/11/04 01:53:47;;;;;;;2.60;2.20;;;;;;;-145.69;100.00;71382.50;5075730;28;20255;-79
2021/11/04 01:56:14;;;;;;;3.10;2.50;;;;;;;-145.69;100.00;71382.50;5075847;28;20256;-80
2021/11/04 01:58:40;;;;;;;3.93;2.57;;;;;;;-145.69;100.00;71392.44;5075541;28;20564;-80
2021/11/04 02:01:08;;;;;;;3.13;2.50;;;;;;;-145.69;100.00;71392.44;5075585;28;20210;-79
2021/11/04 02:03:44;;;;;;;3.40;2.50;;;;;;;-145.69;100.00;71390.47;5075411;28;20549;-80
2021/11/04 02:06:25;;;;;;;3.50;2.67;;;;;;;-145.69;100.00;71390.47;5075842;28;20314;-79
2021/11/04 02:08:55;;;;;;;3.20;2.37;;;;;;;-145.69;100.00;71398.41;5075637;28;20550;-79
2021/11/04 02:11:25;;;;;;;3.03;2.37;;;;;;;-145.69;100.00;71406.38;5075387;28;20205;-80
2021/11/04 02:13:59;;;;;;;3.30;2.63;;;;;;;-145.69;100.00;71410.34;5074772;28;20207;-81
2021/11/04 02:16:28;;;;;;;3.60;2.40;;;;;;;-145.69;100.00;71402.41;5075483;28;20230;-80
2021/11/04 02:19:00;;;;;;;3.57;2.43;;;;;;;-145.69;100.00;71416.31;5075560;28;20198;-80
2021/11/04 02:21:40;;;;;;;3.73;2.87;;;;;;;-145.69;100.00;71416.31;5075532;28;20198;-80
2021/11/04 02:24:14;;;;;;;3.60;2.80;;;;;;;-145.69;100.00;71412.34;5075540;28;20233;-79
2021/11/04 02:26:43;;;;;;;4.00;2.90;;;;;;;-145.69;100.00;71426.28;5075286;28;20274;-80
2021/11/04 02:29:11;;;;;;;4.50;3.07;;;;;;;-145.69;100.00;71434.22;5075338;28;20199;-79
2021/11/04 02:31:38;;;;;;;6.00;3.67;;;;;;;-145.69;100.00;71434.22;5075126;28;20206;-79
2021/11/04 02:34:05;;;;;;;5.07;3.70;;;;;;;-145.69;100.00;71430.25;5075414;28;20213;-79
2021/11/04 02:36:33;;;;;;;4.73;3.17;;;;;;;-145.69;100.00;71430.25;5075330;28;20198;-80
2021/11/04 02:39:00;;;;;;;5.03;3.27;;;;;;;-145.69;100.00;71426.28;5075307;28;20198;-79
2021/11/04 02:41:30;;;;;;;6.03;3.60;;;;;;;-145.69;100.00;71430.25;5075786;28;20198;-79
2021/11/04 02:43:58;;;;;;;4.20;3.30;;;;;;;-145.69;100.00;71436.22;5075762;28;20211;-80
2021/11/04 02:46:25;;;;;;;4.60;2.93;;;;;;;-145.69;100.00;71442.19;5075270;28;20222;-79
2021/11/04 02:48:52;;;;;;;3.93;2.93;;;;;;;-145.69;100.00;71434.22;5074937;28;20604;-79
2021/11/04 02:51:19;;;;;;;4.43;3.00;;;;;;;-145.69;100.00;71442.19;5075066;28;20252;-79
2021/11/04 02:53:49;;;;;;;4.80;3.10;;;;;;;-145.69;100.00;71440.19;5074749;28;20284;-79
2021/11/04 02:56:15;;;;;;;6.23;3.40;;;;;;;-145.69;100.00;71442.19;5075249;28;20260;-79
2021/11/04 02:58:41;;;;;;;5.67;3.17;;;;;;;-145.69;100.00;71440.19;5074989;28;20680;-79
2021/11/04 03:01:09;;;;;;;6.07;3.20;;;;;;;-145.69;100.00;71440.19;5074984;28;20203;-79
2021/11/04 03:03:36;;;;;;;6.27;3.80;;;;;;;-145.69;100.00;71430.25;5073492;28;20277;-79
2021/11/04 03:06:04;;;;;;;6.73;4.07;;;;;;;-145.69;100.00;71426.28;5074654;28;20628;-79
2021/11/04 03:08:31;;;;;;;7.83;3.87;;;;;;;-145.69;100.00;71426.28;5073743;28;20226;-79
2021/11/04 03:10:58;;;;;;;6.93;3.70;;;;;;;-145.69;100.00;71428.25;5074816;28;20202;-79
2021/11/04 03:13:24;;;;;;;5.87;3.77;;;;;;;-145.69;100.00;71426.28;5074161;28;20206;-79
2021/11/04 03:15:55;;;;;;;5.97;3.80;;;;;;;-145.69;100.00;71430.25;5073990;28;20199;-79
2021/11/04 03:18:24;;;;;;;6.30;3.90;;;;;;;-145.69;100.00;71434.22;5074470;28;20206;-79
2021/11/04 03:20:53;;;;;;;7.87;4.03;;;;;;;-145.69;100.00;71430.25;5074198;28;20195;-79
2021/11/04 03:23:20;;;;;;;5.90;3.93;;;;;;;-145.69;100.00;71428.25;5074547;28;20256;-78
2021/11/04 03:25:48;;;;;;;5.70;3.90;;;;;;;-145.69;100.00;71428.25;5073950;28;20597;-79
2021/11/04 03:28:16;;;;;;;6.67;3.20;;;;;;;-145.69;100.00;71428.25;5074158;28;20229;-79
2021/11/04 03:30:44;;;;;;;6.07;3.67;;;;;;;-145.69;100.00;71426.28;5074376;28;20566;-79
2021/11/04 03:33:11;;;;;;;6.17;4.00;;;;;;;-145.69;100.00;71424.28;5073973;28;20257;-79
2021/11/04 03:35:41;;;;;;;5.40;3.90;;;;;;;-145.69;100.00;71426.28;5074416;28;20203;-79
2021/11/04 03:38:12;;;;;;;7.50;3.83;;;;;;;-145.69;100.00;71426.28;5074078;28;20233;-79
2021/11/04 03:40:38;;;;;;;7.63;4.13;;;;;;;-145.69;100.00;71430.25;5074125;28;20198;-79
2021/11/04 03:43:06;;;;;;;7.57;4.20;;;;;;;-145.69;100.00;71424.28;5073985;28;20198;-79
2021/11/04 03:45:33;;;;;;;5.60;3.67;;;;;;;-145.69;100.00;71430.25;5073842;28;20203;-79
2021/11/04 03:48:00;;;;;;;7.03;4.00;;;;;;;-145.69;100.00;71430.25;5073699;28;20230;-78
2021/11/04 03:50:27;;;;;;;6.30;3.83;;;;;;;-145.69;100.00;71436.22;5074039;28;20199;-78
2021/11/04 03:52:55;;;;;;;7.03;4.00;;;;;;;-145.69;100.00;71438.22;5072345;28;20234;-78
2021/11/04 03:55:25;;;;;;;6.23;3.60;;;;;;;-145.69;100.00;71436.22;5073925;28;20225;-77
2021/11/04 03:57:52;;;;;;;8.07;4.20;;;;;;;-145.69;100.00;71438.22;5073513;28;20256;-77
2021/11/04 04:00:19;;;;;;;7.03;4.10;;;;;;;-145.69;100.00;71444.19;5073516;28;20723;-77
2021/11/04 04:02:48;;;;;;;6.07;3.77;;;;;;;-145.69;100.00;71438.22;5073993;28;20199;-77
2021/11/04 04:05:15;;;;;;;9.90;4.10;;;;;;;-145.69;100.00;71432.25;5073573;28;20684;-78
2021/11/04 04:07:43;;;;;;;10.30;4.00;;;;;;;-145.69;100.00;71438.22;5073641;28;20226;-78
2021/11/04 04:10:11;;;;;;;6.47;3.83;;;;;;;-145.69;100.00;71436.22;5073762;28;20202;-77
2021/11/04 04:12:38;;;;;;;6.67;4.20;;;;;;;-145.69;100.00;71436.22;5073490;28;20646;-78
2021/11/04 04:15:05;;;;;;;6.40;4.37;;;;;;;-145.69;100.00;71438.22;5073718;28;20199;-78
2021/11/04 04:17:31;;;;;;;6.90;4.07;;;;;;;-145.69;100.00;71438.22;5073748;28;20205;-78
2021/11/04 04:19:58;;;;;;;7.77;4.17;;;;;;;-145.69;100.00;71434.22;5073417;28;20195;-78
2021/11/04 04:22:24;;;;;;;5.13;3.60;;;;;;;-145.69;100.00;71432.25;5073608;28;20600;-78
2021/11/04 04:24:51;;;;;;;8.00;4.20;;;;;;;-145.69;100.00;71434.22;5073354;28;20198;-78
2021/11/04 04:27:18;;;;;;;7.03;4.50;;;;;;;-145.69;100.00;71436.22;5073166;28;20276;-79
2021/11/04 04:29:45;;;;;;;8.47;4.73;;;;;;;-145.69;100.00;71436.22;5073316;28;20202;-78
2021/11/04 04:32:12;;;;;;;6.50;4.23;;;;;;;-145.69;100.00;71438.22;5073553;28;20248;-78
2021/11/04 04:34:40;;;;;;;7.37;4.40;;;;;;;-145.69;100.00;71440.19;5073315;28;20198;-78
2021/11/04 04:37:07;;;;;;;6.80;4.20;;;;;;;-145.69;100.00;71426.28;5072766;28;20230;-78
2021/11/04 04:39:34;;;;;;;8.73;5.07;;;;;;;-145.69;100.00;71430.25;5073007;28;20680;-78
2021/11/04 04:42:01;;;;;;;9.27;4.30;;;;;;;-145.69;100.00;71436.22;5073165;28;20718;-78
2021/11/04 04:44:29;;;;;;;6.97;4.40;;;;;;;-145.69;100.00;71438.22;5073209;28;20210;-78
2021/11/04 04:46:55;;;;;;;7.67;4.83;;;;;;;-145.69;100.00;71434.22;5073099;28;20226;-78
2021/11/04 04:49:22;;;;;;;7.03;4.30;;;;;;;-145.69;100.00;71432.25;5073173;28;20199;-78
2021/11/04 04:51:48;;;;;;;6.80;3.73;;;;;;;-145.69;100.00;71432.25;5072954;28;20210;-78
2021/11/04 04:54:15;;;;;;;5.00;3.50;;;;;;;-145.69;100.00;71432.25;5073122;28;20272;-78
2021/11/04 04:56:42;;;;;;;5.30;3.60;;;;;;;-145.69;100.00;71432.25;5072880;28;20210;-78
2021/11/04 04:59:08;;;;;;;5.47;3.50;;;;;;;-145.69;100.00;71430.25;5073102;28;20198;-78
2021/11/04 05:01:36;;;;;;;5.43;3.53;;;;;;;-145.69;100.00;71430.25;5072748;28;20244;-78
2021/11/04 05:04:03;;;;;;;6.57;3.67;;;;;;;-145.69;100.00;71420.31;5073135;28;20226;-78
2021/11/04 05:06:29;;;;;;;4.57;3.17;;;;;;;-145.69;100.00;71426.28;5072694;28;20701;-78
2021/11/04 05:08:55;;;;;;;5.27;3.70;;;;;;;-145.69;100.00;71428.25;5072908;28;20202;-78
2021/11/04 05:11:22;;;;;;;4.60;3.20;;;;;;;-145.69;100.00;71434.22;5072946;28;20207;-78
2021/11/04 05:13:48;;;;;;;4.40;3.00;;;;;;;-145.69;100.00;71432.25;5072887;28;20195;-78
2021/11/04 05:16:15;;;;;;;6.20;3.10;;;;;;;-145.69;100.00;71436.22;5072522;28;20203;-78
2021/11/04 05:18:42;;;;;;;3.37;2.57;;;;;;;-145.69;100.00;71442.19;5072918;28;20241;-78
2021/11/04 05:21:09;;;;;;;3.93;2.70;;;;;;;-145.69;100.00;71436.22;5072868;28;20199;-78
2021/11/04 05:23:35;;;;;;;3.87;2.70;;;;;;;-145.69;100.00;71432.25;5072726;28;20203;-78
2021/11/04 05:26:02;;;;;;;3.60;2.50;;;;;;;-145.69;100.00;71430.25;5072985;28;20202;-78
2021/11/04 05:28:28;;;;;;;3.23;1.90;;;;;;;-145.69;100.00;71428.25;5072764;28;20234;-78
2021/11/04 05:30:57;;;;;;;3.77;2.40;;;;;;;-145.69;100.00;71430.25;5072826;28;20234;-78
2021/11/04 05:33:23;;;;;;;5.63;2.40;;;;;;;-145.69;100.00;71430.25;5072462;28;20654;-78
2021/11/04 05:35:51;;;;;;;2.47;1.73;;;;;;;-145.69;100.00;71424.28;5072638;28;20203;-78
2021/11/04 05:38:17;;;;;;;1.90;1.60;;;;;;;-145.69;100.00;71430.25;5072618;28;20272;-78
2021/11/04 05:40:44;;;;;;;2.67;1.70;;;;;;;-145.69;100.00;71434.22;5072779;28;20232;-79
2021/11/04 05:43:10;;;;;;;2.40;1.83;;;;;;;-145.69;100.00;71434.22;5072748;28;20199;-78
2021/11/04 05:45:37;;;;;;;2.40;1.73;;;;;;;-145.69;100.00;71432.25;5072435;28;20203;-78
2021/11/04 05:48:04;;;;;;;1.40;1.30;;;;;;;-145.69;100.00;71434.22;5072407;28;20222;-78
2021/11/04 05:50:30;;;;;;;2.07;1.53;;;;;;;-145.69;100.00;71442.19;5074387;28;20611;-79
2021/11/04 05:53:00;;;;;;;1.90;1.60;;;;;;;-145.69;100.00;71442.19;5075590;28;20640;-79
2021/11/04 05:55:26;;;;;;;1.73;1.20;;;;;;;-145.69;100.00;71442.19;5075984;28;20199;-78
2021/11/04 05:57:53;;;;;;;2.40;1.37;;;;;;;-145.69;100.00;71436.22;5076055;28;20234;-78
2021/11/04 06:00:19;;;;;;;1.47;1.27;;;;;;;-145.69;100.00;71444.19;5076043;28;20199;-78
2021/11/04 06:02:45;;;;;;;1.40;1.20;;;;;;;-145.69;100.00;71448.16;5075820;28;20201;-77
2021/11/04 06:05:12;;;;;;;1.23;1.13;;;;;;;-145.69;100.00;71446.16;5075742;28;20722;-77
2021/11/04 06:07:38;;;;;;;1.63;1.23;;;;;;;-145.69;100.00;71450.16;5076062;28;20230;-77
2021/11/04 06:10:06;;;;;;;1.50;1.20;;;;;;;-145.69;100.00;71454.13;5075735;28;20203;-77
2021/11/04 06:12:33;;;;;;;1.50;1.20;;;;;;;-145.69;100.00;71466.06;5075812;28;20205;-77
2021/11/04 06:14:59;;;;;;;1.93;1.40;;;;;;;-145.69;100.00;71466.06;5075895;28;20203;-78
2021/11/04 06:17:26;;;;;;;1.00;0.90;;;;;;;-145.69;100.00;71476.03;5075574;28;20198;-78
2021/11/04 06:19:52;;;;;;;1.70;1.33;;;;;;;-145.69;100.00;71485.97;5075581;28;20199;-79
2021/11/04 06:22:18;;;;;;;1.43;1.20;;;;;;;-145.69;100.00;71474.03;5075738;28;20527;-79
2021/11/04 06:24:45;;;;;;;1.20;1.10;;;;;;;-145.69;100.00;71482.00;5075702;28;20202;-79
2021/11/04 06:27:13;;;;;;;1.37;1.10;;;;;;;-145.69;100.00;71489.94;5075532;28;20276;-78
2021/11/04 06:29:39;;;;;;;1.20;1.10;;;;;;;-145.69;100.00;71489.94;5075529;28;20209;-78
2021/11/04 06:32:06;;;;;;;1.20;1.10;;;;;;;-145.69;100.00;71493.94;5075731;28;20649;-78
2021/11/04 06:34:32;;;;;;;1.73;1.00;;;;;;;-145.69;100.00;71493.94;5075333;28;20209;-77
2021/11/04 06:36:59;;;;;;;1.30;1.20;;;;;;;-145.69;100.00;71497.91;5075346;28;20248;-77
2021/11/04 06:39:25;;;;;;;0.73;0.73;;;;;;;-145.69;100.00;71503.88;5075369;28;20236;-78
2021/11/04 06:41:52;;;;;;;1.03;0.80;;;;;;;-145.69;100.00;71499.91;5075406;28;20203;-77
2021/11/04 06:44:20;;;;;;;1.60;1.00;;;;;;;-145.69;100.00;71501.88;5075189;28;20298;-79
2021/11/04 06:46:49;;;;;;;1.23;1.13;;;;;;;-145.69;100.00;71495.91;5074956;28;20199;-78
2021/11/04 06:49:17;;;;;;;1.20;1.10;;;;;;;-145.69;100.00;71495.91;5074844;28;20286;-79
2021/11/04 06:51:48;;;;;;;0.70;0.70;;;;;;;-145.69;100.00;71497.91;5075172;28;20203;-79
2021/11/04 06:54:16;;;;;;;1.00;0.90;;;;;;;-145.69;100.00;71501.88;5035140;28;20208;-78
2021/11/04 06:56:44;;;;;;;1.07;1.00;;;;;;;-145.69;100.00;71499.91;5034954;28;20196;-77
2021/11/04 06:59:17;;;;;;;1.10;1.10;;;;;;;-145.69;100.00;71513.81;5034741;28;20651;-78
2021/11/04 07:01:50;;;;;;;1.20;0.90;;;;;;;-145.69;100.00;71513.81;5034159;28;20719;-78
2021/11/04 07:04:25;;;;;;;1.60;1.27;;;;;;;-145.69;100.00;71519.81;5034838;28;20691;-77
2021/11/04 07:07:00;;;;;;;1.23;1.07;;;;;;;-145.69;100.00;71519.81;5034715;28;20739;-77
2021/11/04 07:09:28;;;;;;;1.20;1.10;;;;;;;-145.69;100.00;71525.78;5035027;28;20203;-77
2021/11/04 07:11:56;;;;;;;1.40;1.20;;;;;;;-145.69;100.00;71529.75;5034396;28;20667;-77
2021/11/04 07:14:27;;;;;;;2.53;1.10;;;;;;;-145.69;100.00;71535.72;5034783;28;20267;-78
2021/11/04 07:16:54;;;;;;;1.37;1.20;;;;;;;-145.69;100.00;71539.69;5033928;28;20205;-77
2021/11/04 07:19:23;;;;;;;1.50;1.20;;;;;;;-145.69;100.00;71541.69;5034392;28;20687;-77
2021/11/04 07:22:00;;;;;;;2.17;1.00;;;;;;;-145.69;100.00;71543.69;5034336;28;20200;-78
2021/11/04 07:24:31;;;;;;;1.70;1.53;;;;;;;-145.69;100.00;71547.66;5034340;28;20196;-77
2021/11/04 07:27:11;;;;;;;2.67;1.93;;;;;;;-145.69;100.00;71549.66;5034313;28;20726;-77
2021/11/04 07:29:42;;;;;;;1.80;1.30;;;;;;;-145.69;100.00;71555.63;5034570;28;20199;-76
2021/11/04 07:32:15;;;;;;;1.93;1.50;;;;;;;-145.69;100.00;71561.59;5034426;28;20749;-76
2021/11/04 07:34:44;;;;;;;4.10;1.67;;;;;;;-145.69;100.00;71553.63;5034053;28;20206;-77
2021/11/04 07:37:12;;;;;;;1.67;1.57;;;;;;;-145.69;100.00;71561.59;5032843;28;20208;-77
2021/11/04 07:39:39;;;;;;;2.60;1.70;;;;;;;-145.69;100.00;71577.50;5034264;28;20215;-77
2021/11/04 07:42:07;;;;;;;2.20;1.63;;;;;;;-145.69;100.00;71569.53;5034150;28;20250;-76
2021/11/04 07:44:34;;;;;;;1.60;1.33;;;;;;;-145.69;100.00;71569.53;5034081;28;20196;-76
2021/11/04 07:47:01;;;;;;;3.67;1.87;;;;;;;-145.69;100.00;71581.50;5034140;28;20204;-76
2021/11/04 07:49:29;;;;;;;3.73;1.80;;;;;;;-145.69;100.00;71581.50;5033735;28;20232;-76
2021/11/04 07:52:00;;;;;;;2.03;1.63;;;;;;;-145.69;100.00;71581.50;5036740;28;20339;-76
2021/11/04 07:54:26;;;;;;;2.47;1.77;;;;;;;-145.69;100.00;71579.50;5074033;28;20203;-76
2021/11/04 07:56:53;;;;;;;3.43;1.50;;;;;;;-145.69;100.00;71585.47;5073680;28;20203;-76
2021/11/04 07:59:19;;;;;;;2.17;1.67;;;;;;;-145.69;100.00;71587.47;5073466;28;20727;-76
2021/11/04 08:01:45;;;;;;;2.83;1.70;;;;;;;-145.69;100.00;71593.44;5073530;28;20202;-76
2021/11/04 08:04:12;;;;;;;2.90;2.07;;;;;;;-145.69;100.00;71597.41;5073416;28;20202;-76
2021/11/04 08:06:40;;;;;;;2.17;1.70;;;;;;;-145.69;100.00;71601.38;5073722;28;20206;-76
2021/11/04 08:09:06;;;;;;;2.20;1.63;;;;;;;-145.69;100.00;71597.41;5073686;28;20275;-77
2021/11/04 08:11:32;;;;;;;2.63;1.60;;;;;;;-145.69;100.00;71613.31;5073345;28;20203;-76
2021/11/04 08:13:59;;;;;;;77.27;20.57;;;;;;;-145.69;100.00;71613.31;5072782;28;20215;-76
2021/11/04 08:16:25;;;;;;;3.23;2.27;;;;;;;-145.69;100.00;71617.31;5073236;28;20206;-76
2021/11/04 08:18:52;;;;;;;1.80;1.43;;;;;;;-145.69;100.00;71621.28;5073511;28;20252;-76
2021/11/04 08:21:18;;;;;;;2.20;1.63;;;;;;;-145.69;100.00;71615.31;5073520;28;20203;-76
2021/11/04 08:23:46;;;;;;;1.50;1.40;;;;;;;-145.69;100.00;71613.31;5073400;28;20226;-76
2021/11/04 08:26:15;;;;;;;2.60;1.73;;;;;;;-145.69;100.00;71615.31;5073330;28;20202;-77
2021/11/04 08:28:41;;;;;;;2.37;1.50;;;;;;;-145.69;100.00;71609.34;5073217;28;20223;-77
2021/11/04 08:31:08;;;;;;;1.90;1.37;;;;;;;-145.69;100.00;71621.28;5073098;28;20245;-76
2021/11/04 08:33:34;;;;;;;1.50;1.20;;;;;;;-145.69;100.00;71617.31;5073367;28;20206;-76
2021/11/04 08:36:01;;;;;;;1.50;1.30;;;;;;;-145.69;100.00;71621.28;5073216;28;20256;-76
2021/11/04 08:38:27;;;;;;;6.43;1.50;;;;;;;-145.69;100.00;71619.28;5073214;28;20273;-75
2021/11/04 08:40:55;;;;;;;2.43;1.30;;;;;;;-145.69;100.00;71627.25;5073080;28;20632;-76
2021/11/04 08:43:21;;;;;;;2.40;1.37;;;;;;;-145.69;100.00;71629.25;5073052;28;20199;-76
2021/11/04 08:45:48;;;;;;;1.90;1.30;;;;;;;-145.69;100.00;71633.22;5073022;28;20539;-76
2021/11/04 08:48:17;;;;;;;1.87;1.40;;;;;;;-145.69;100.00;71637.19;5073060;28;20276;-76
2021/11/04 08:50:44;;;;;;;2.57;1.87;;;;;;;-145.69;100.00;71641.19;5073162;28;20195;-76
2021/11/04 08:53:11;;;;;;;1.40;1.20;;;;;;;-145.69;100.00;71649.16;5072930;28;20198;-75
2021/11/04 08:55:37;;;;;;;1.27;1.10;;;;;;;-145.69;100.00;71645.16;5072766;28;20210;-76
2021/11/04 08:58:05;;;;;;;1.40;1.20;;;;;;;-145.69;100.00;71651.13;5072815;28;20562;-77
2021/11/04 09:00:32;;;;;;;0.97;0.97;;;;;;;-145.69;100.00;71645.16;5072647;28;20680;-79
2021/11/04 09:02:58;;;;;;;2.10;1.30;;;;;;;-145.69;100.00;71651.13;5072890;28;20202;-78
2021/11/04 09:05:25;;;;;;;1.80;1.47;;;;;;;-145.69;100.00;71651.13;5072670;28;20210;-79
2021/11/04 09:07:51;;;;;;;1.70;1.50;;;;;;;-145.69;100.00;71665.06;5072715;28;20226;-78
2021/11/04 09:10:21;;;;;;;1.20;1.10;;;;;;;-145.69;100.00;71659.09;5072737;28;20207;-78
2021/11/04 09:12:48;;;;;;;1.57;1.20;;;;;;;-145.69;100.00;71651.13;5072113;28;20201;-76
2021/11/04 09:15:16;;;;;;;2.67;1.43;;;;;;;-145.69;100.00;71653.13;5071765;28;20203;-76
2021/11/04 09:17:43;;;;;;;1.30;1.20;;;;;;;-145.69;100.00;71661.09;5072637;28;20723;-76
2021/11/04 09:20:12;;;;;;;1.50;1.33;;;;;;;-145.69;100.00;71659.09;5072741;28;20231;-77
2021/11/04 09:22:38;;;;;;;1.63;1.00;;;;;;;-145.69;100.00;71663.06;5072687;28;20224;-77
2021/11/04 09:25:06;;;;;;;5.70;2.20;;;;;;;-145.69;100.00;71669.03;5075534;28;20207;-77
2021/11/04 09:27:32;;;;;;;1.53;1.20;;;;;;;-145.69;100.00;71669.03;5076389;28;20203;-75
2021/11/04 09:30:00;;;;;;;1.10;1.00;;;;;;;-145.69;100.00;71673.03;5073219;28;20230;-78
2021/11/04 09:32:28;;;;;;;2.70;1.10;;;;;;;-145.69;100.00;71677.00;5076451;28;20244;-76
2021/11/04 09:34:54;;;;;;;12.83;3.47;;;;;;;-145.69;100.00;71665.06;5075885;28;20255;-79
2021/11/04 09:37:21;;;;;;;2.40;1.40;;;;;;;-145.69;100.00;71680.97;5076436;28;20203;-76
2021/11/04 09:39:48;;;;;;;15.47;4.40;;;;;;;-145.69;100.00;71684.97;5076077;28;20202;-78
2021/11/04 09:42:17;;;;;;;2.57;1.27;;;;;;;-145.69;100.00;71696.91;5076121;28;20206;-76
2021/11/04 09:44:44;;;;;;;12.83;3.70;;;;;;;-145.69;100.00;71702.88;5076241;28;20232;-76
2021/11/04 09:47:11;;;;;;;6.97;2.80;;;;;;;-145.69;100.00;71712.81;5075178;28;20604;-76
2021/11/04 09:49:39;;;;;;;6.67;3.10;;;;;;;-145.69;100.00;71702.88;5076038;28;20237;-76
2021/11/04 09:52:06;;;;;;;8.00;3.00;;;;;;;-145.69;100.00;71700.88;5075956;28;20246;-76
2021/11/04 09:54:33;;;;;;;3.03;2.10;;;;;;;-145.69;100.00;71700.88;5075758;28;20191;-76
2021/11/04 09:56:59;;;;;;;3.80;1.90;;;;;;;-145.69;100.00;71712.81;5076585;28;20198;-76
2021/11/04 09:59:26;;;;;;;11.23;4.97;;;;;;;-145.69;100.00;71714.81;5076003;28;20202;-77
2021/11/04 10:01:52;;;;;;;1.83;1.43;;;;;;;-145.69;100.00;71732.72;5075698;28;20213;-77
2021/11/04 10:04:32;;;;;;;2.30;1.70;;;;;;;-145.69;100.00;71712.81;5075936;28;20248;-77
2021/11/04 10:07:00;;;;;;;1.73;1.43;;;;;;;-145.69;100.00;71718.78;5075648;28;20209;-77
2021/11/04 10:09:28;;;;;;;1.67;1.50;;;;;;;-145.69;100.00;71724.75;5075689;28;20230;-77
2021/11/04 10:11:56;;;;;;;3.10;1.80;;;;;;;-145.69;100.00;71710.84;5075544;28;20202;-77
2021/11/04 10:14:23;;;;;;;5.80;2.30;;;;;;;-145.69;100.00;71706.84;5075818;28;20281;-76
2021/11/04 10:16:49;;;;;;;1.57;1.37;;;;;;;-145.69;100.00;71722.78;5074715;28;20195;-76
2021/11/04 10:19:18;;;;;;;2.27;1.30;;;;;;;-145.69;100.00;71732.72;5074142;28;20207;-76
2021/11/04 10:21:48;;;;;;;1.37;1.13;;;;;;;-145.69;100.00;71740.69;5073937;28;20217;-76
2021/11/04 10:24:22;;;;;;;4.17;1.23;;;;;;;-145.69;100.00;71740.69;5074190;28;20190;-76
2021/11/04 10:26:53;;;;;;;2.13;1.57;;;;;;;-145.69;100.00;71740.69;5074214;28;20199;-76
2021/11/04 10:29:20;;;;;;;1.70;1.30;;;;;;;-145.69;100.00;71744.66;5074327;28;20219;-76
2021/11/04 10:31:49;;;;;;;1.77;1.50;;;;;;;-145.69;100.00;71756.59;5074353;28;20198;-77
2021/11/04 10:34:25;;;;;;;3.07;1.40;;;;;;;-145.69;100.00;71754.63;5073757;28;20229;-77
2021/11/04 10:36:52;;;;;;;2.30;1.50;;;;;;;-145.69;100.00;71756.59;5072568;28;20278;-77
2021/11/04 10:39:27;;;;;;;2.20;1.70;;;;;;;-145.69;100.00;71758.59;5073751;28;20201;-77
2021/11/04 10:41:55;;;;;;;1.83;1.60;;;;;;;-145.69;100.00;71760.59;5075614;28;20557;-76
2021/11/04 10:44:22;;;;;;;2.53;1.60;;;;;;;-145.69;100.00;71752.63;5073205;28;20291;-77
2021/11/04 10:46:51;;;;;;;3.23;2.33;;;;;;;-145.69;100.00;71754.63;5073263;28;20198;-77
2021/11/04 10:49:20;;;;;;;2.97;1.90;;;;;;;-145.69;100.00;71748.66;5075016;28;20222;-76
2021/11/04 10:51:56;;;;;;;2.53;1.73;;;;;;;-145.69;100.00;71744.66;5075188;28;20570;-76
2021/11/04 10:54:23;;;;;;;3.20;2.00;;;;;;;-145.69;100.00;71736.72;5075068;28;20206;-76
2021/11/04 10:56:53;;;;;;;3.50;2.20;;;;;;;-145.69;100.00;71744.66;5074796;28;20202;-77
2021/11/04 10:59:21;;;;;;;2.50;1.93;;;;;;;-145.69;100.00;71748.66;5074821;28;20669;-76
2021/11/04 11:01:49;;;;;;;2.40;1.83;;;;;;;-145.69;100.00;71740.69;5074960;28;20249;-76
2021/11/04 11:04:17;;;;;;;2.87;2.20;;;;;;;-145.69;100.00;71744.66;5074530;28;20645;-76
2021/11/04 11:06:46;;;;;;;3.33;2.30;;;;;;;-145.69;100.00;71734.72;5074738;28;20198;-76
2021/11/04 11:09:15;;;;;;;3.63;2.60;;;;;;;-145.69;100.00;71742.69;5074402;28;20230;-76
2021/11/04 11:11:45;;;;;;;2.97;2.10;;;;;;;-145.69;100.00;71744.66;5074331;28;20214;-76
2021/11/04 11:14:12;;;;;;;3.33;2.33;;;;;;;-145.69;100.00;71754.63;5074923;28;20206;-76